sensor_id;sensor_type;location;lat;lon;timestamp;P1;durP1;ratioP1;P2;durP2;ratioP2
74177;SDS011;62540;48.456;-4.456;2022-09-14T00:00:26;8.50;;;8.50;;
74177;SDS011;62540;48.456;-4.456;2022-09-14T00:02:52;10.25;;;9.00;;
74177;SDS011;62540;48.456;-4.456;2022-09-14T00:05:18;9.75;;;9.75;;
74177;SDS011;62540;48.456;-4.456;2022-09-14T00:07:44;9.75;;;9.75;;
74177;SDS011;62540;48.456;-4.456;2022-09-14T00:10:09;10.00;;;8.75;;
74177;SDS011;62540;48.456;-4.456;2022-09-14T00:12:34;9.75;;;9.00;;
74177;SDS011;62540;48.456;-4.456;2022-09-14T00:15:00;6.75;;;5.75;;
74177;SDS011;62540;48.456;-4.456;2022-09-14T00:17:25;6.00;;;6.00;;
74177;SDS011;62540;48.456;-4.456;2022-09-14T00:19:50;11.75;;;10.75;;
74177;SDS011;62540;48.456;-4.456;2022-09-14T00:22:17;13.25;;;11.75;;
74177;SDS011;62540;48.456;-4.456;2022-09-14T00:24:43;12.00;;;10.00;;
74177;SDS011;62540;48.456;-4.456;2022-09-14T00:27:08;9.75;;;9.00;;
74177;SDS011;62540;48.456;-4.456;2022-09-14T00:29:34;5.50;;;4.50;;
74177;SDS011;62540;48.456;-4.456;2022-09-14T00:31:59;10.50;;;10.50;;
74177;SDS011;62540;48.456;-4.456;2022-09-14T00:34:25;11.25;;;10.75;;
74177;SDS011;62540;48.456;-4.456;2022-09-14T00:36:51;12.25;;;11.25;;
74177;SDS011;62540;48.456;-4.456;2022-09-14T00:39:18;10.25;;;7.75;;
74177;SDS011;62540;48.456;-4.456;2022-09-14T00:41:46;11.75;;;11.75;;
74177;SDS011;62540;48.456;-4.456;2022-09-14T00:49:07;9.25;;;9.25;;
74177;SDS011;62540;48.456;-4.456;2022-09-14T00:51:38;13.25;;;11.25;;
74177;SDS011;62540;48.456;-4.456;2022-09-14T00:54:09;11.75;;;10.75;;
74177;SDS011;62540;48.456;-4.456;2022-09-14T00:56:34;14.00;;;12.00;;
74177;SDS011;62540;48.456;-4.456;2022-09-14T00:59:01;13.25;;;11.75;;
74177;SDS011;62540;48.456;-4.456;2022-09-14T01:01:41;9.00;;;9.00;;
74177;SDS011;62540;48.456;-4.456;2022-09-14T01:04:06;10.75;;;10.75;;
74177;SDS011;62540;48.456;-4.456;2022-09-14T01:09:06;10.00;;;9.75;;
74177;SDS011;62540;48.456;-4.456;2022-09-14T01:11:40;13.00;;;11.50;;
74177;SDS011;62540;48.456;-4.456;2022-09-14T01:14:20;13.00;;;12.00;;
74177;SDS011;62540;48.456;-4.456;2022-09-14T01:25:59;4.00;;;4.00;;
74177;SDS011;62540;48.456;-4.456;2022-09-14T01:31:27;8.75;;;6.00;;
74177;SDS011;62540;48.456;-4.456;2022-09-14T01:34:11;5.75;;;4.75;;
74177;SDS011;62540;48.456;-4.456;2022-09-14T01:36:45;8.75;;;7.00;;
74177;SDS011;62540;48.456;-4.456;2022-09-14T01:39:15;6.00;;;6.00;;
74177;SDS011;62540;48.456;-4.456;2022-09-14T01:41:44;9.00;;;6.25;;
74177;SDS011;62540;48.456;-4.456;2022-09-14T01:44:15;6.25;;;5.25;;
74177;SDS011;62540;48.456;-4.456;2022-09-14T01:46:48;5.00;;;5.00;;
74177;SDS011;62540;48.456;-4.456;2022-09-14T01:49:28;5.25;;;4.75;;
74177;SDS011;62540;48.456;-4.456;2022-09-14T01:54:48;5.25;;;3.00;;
74177;SDS011;62540;48.456;-4.456;2022-09-14T01:57:25;7.50;;;5.25;;
74177;SDS011;62540;48.456;-4.456;2022-09-14T01:59:57;4.50;;;3.75;;
74177;SDS011;62540;48.456;-4.456;2022-09-14T02:02:33;5.00;;;4.50;;
74177;SDS011;62540;48.456;-4.456;2022-09-14T02:07:52;6.00;;;5.25;;
74177;SDS011;62540;48.456;-4.456;2022-09-14T02:10:18;6.00;;;5.50;;
74177;SDS011;62540;48.456;-4.456;2022-09-14T02:12:43;6.00;;;5.00;;
74177;SDS011;62540;48.456;-4.456;2022-09-14T02:15:10;7.75;;;5.75;;
74177;SDS011;62540;48.456;-4.456;2022-09-14T02:17:37;6.00;;;5.75;;
74177;SDS011;62540;48.456;-4.456;2022-09-14T02:20:04;8.00;;;8.00;;
74177;SDS011;62540;48.456;-4.456;2022-09-14T02:22:33;6.75;;;6.75;;
74177;SDS011;62540;48.456;-4.456;2022-09-14T02:24:59;9.25;;;7.75;;
74177;SDS011;62540;48.456;-4.456;2022-09-14T02:27:25;10.50;;;9.75;;
74177;SDS011;62540;48.456;-4.456;2022-09-14T02:29:54;9.50;;;9.50;;
74177;SDS011;62540;48.456;-4.456;2022-09-14T02:32:22;12.25;;;10.25;;
74177;SDS011;62540;48.456;-4.456;2022-09-14T02:37:58;11.25;;;10.00;;
74177;SDS011;62540;48.456;-4.456;2022-09-14T02:51:57;11.00;;;9.75;;
74177;SDS011;62540;48.456;-4.456;2022-09-14T02:57:02;11.00;;;9.00;;
74177;SDS011;62540;48.456;-4.456;2022-09-14T02:59:28;9.75;;;9.25;;
74177;SDS011;62540;48.456;-4.456;2022-09-14T03:01:54;11.50;;;9.50;;
74177;SDS011;62540;48.456;-4.456;2022-09-14T03:04:20;12.00;;;10.25;;
74177;SDS011;62540;48.456;-4.456;2022-09-14T03:06:45;12.00;;;9.25;;
74177;SDS011;62540;48.456;-4.456;2022-09-14T03:09:11;11.25;;;9.75;;
74177;SDS011;62540;48.456;-4.456;2022-09-14T03:11:36;11.25;;;10.75;;
74177;SDS011;62540;48.456;-4.456;2022-09-14T03:14:01;16.00;;;12.25;;
74177;SDS011;62540;48.456;-4.456;2022-09-14T03:16:27;11.75;;;10.00;;
74177;SDS011;62540;48.456;-4.456;2022-09-14T03:18:52;11.50;;;10.75;;
74177;SDS011;62540;48.456;-4.456;2022-09-14T03:21:17;12.25;;;10.25;;
74177;SDS011;62540;48.456;-4.456;2022-09-14T03:23:47;13.75;;;11.50;;
74177;SDS011;62540;48.456;-4.456;2022-09-14T03:26:15;15.75;;;11.25;;
74177;SDS011;62540;48.456;-4.456;2022-09-14T03:28:42;18.25;;;15.50;;
74177;SDS011;62540;48.456;-4.456;2022-09-14T03:31:08;9.75;;;9.75;;
74177;SDS011;62540;48.456;-4.456;2022-09-14T03:33:35;8.50;;;6.50;;
74177;SDS011;62540;48.456;-4.456;2022-09-14T03:36:11;8.50;;;8.50;;
74177;SDS011;62540;48.456;-4.456;2022-09-14T03:38:47;10.50;;;8.25;;
74177;SDS011;62540;48.456;-4.456;2022-09-14T03:41:17;7.75;;;7.75;;
74177;SDS011;62540;48.456;-4.456;2022-09-14T03:43:44;10.50;;;9.50;;
74177;SDS011;62540;48.456;-4.456;2022-09-14T03:46:10;14.75;;;12.25;;
74177;SDS011;62540;48.456;-4.456;2022-09-14T03:48:37;13.00;;;10.25;;
74177;SDS011;62540;48.456;-4.456;2022-09-14T03:51:03;10.25;;;9.25;;
74177;SDS011;62540;48.456;-4.456;2022-09-14T03:53:31;8.50;;;8.00;;
74177;SDS011;62540;48.456;-4.456;2022-09-14T03:55:58;9.00;;;8.75;;
74177;SDS011;62540;48.456;-4.456;2022-09-14T03:58:24;10.75;;;10.00;;
74177;SDS011;62540;48.456;-4.456;2022-09-14T04:00:49;14.25;;;10.00;;
74177;SDS011;62540;48.456;-4.456;2022-09-14T04:03:15;11.25;;;11.25;;
74177;SDS011;62540;48.456;-4.456;2022-09-14T04:05:41;17.00;;;13.00;;
74177;SDS011;62540;48.456;-4.456;2022-09-14T04:08:06;12.00;;;11.25;;
74177;SDS011;62540;48.456;-4.456;2022-09-14T04:10:32;25.50;;;16.00;;
74177;SDS011;62540;48.456;-4.456;2022-09-14T04:12:57;10.25;;;8.00;;
74177;SDS011;62540;48.456;-4.456;2022-09-14T04:15:23;11.00;;;9.50;;
74177;SDS011;62540;48.456;-4.456;2022-09-14T04:17:48;10.25;;;9.25;;
74177;SDS011;62540;48.456;-4.456;2022-09-14T04:20:15;13.50;;;11.75;;
74177;SDS011;62540;48.456;-4.456;2022-09-14T04:22:42;16.75;;;11.75;;
74177;SDS011;62540;48.456;-4.456;2022-09-14T04:25:08;10.75;;;10.75;;
74177;SDS011;62540;48.456;-4.456;2022-09-14T04:27:33;17.50;;;13.00;;
74177;SDS011;62540;48.456;-4.456;2022-09-14T04:29:59;10.00;;;9.00;;
74177;SDS011;62540;48.456;-4.456;2022-09-14T04:32:24;14.25;;;12.50;;
74177;SDS011;62540;48.456;-4.456;2022-09-14T04:34:50;11.25;;;10.00;;
74177;SDS011;62540;48.456;-4.456;2022-09-14T04:37:15;12.25;;;10.50;;
74177;SDS011;62540;48.456;-4.456;2022-09-14T04:39:40;12.25;;;10.25;;
74177;SDS011;62540;48.456;-4.456;2022-09-14T04:42:06;12.00;;;11.25;;
74177;SDS011;62540;48.456;-4.456;2022-09-14T04:44:32;15.00;;;14.50;;
74177;SDS011;62540;48.456;-4.456;2022-09-14T04:46:57;12.25;;;11.00;;
74177;SDS011;62540;48.456;-4.456;2022-09-14T04:49:22;10.75;;;9.50;;
74177;SDS011;62540;48.456;-4.456;2022-09-14T04:51:48;17.25;;;16.50;;
74177;SDS011;62540;48.456;-4.456;2022-09-14T04:54:14;12.00;;;11.00;;
74177;SDS011;62540;48.456;-4.456;2022-09-14T04:56:41;12.25;;;10.50;;
74177;SDS011;62540;48.456;-4.456;2022-09-14T04:59:08;17.25;;;13.50;;
74177;SDS011;62540;48.456;-4.456;2022-09-14T05:01:35;13.25;;;11.50;;
74177;SDS011;62540;48.456;-4.456;2022-09-14T05:04:03;15.75;;;11.75;;
74177;SDS011;62540;48.456;-4.456;2022-09-14T05:06:30;12.00;;;10.25;;
74177;SDS011;62540;48.456;-4.456;2022-09-14T05:08:57;10.75;;;9.75;;
74177;SDS011;62540;48.456;-4.456;2022-09-14T05:11:25;10.00;;;10.00;;
74177;SDS011;62540;48.456;-4.456;2022-09-14T05:13:52;11.75;;;11.25;;
74177;SDS011;62540;48.456;-4.456;2022-09-14T05:16:21;14.75;;;12.50;;
74177;SDS011;62540;48.456;-4.456;2022-09-14T05:18:47;15.75;;;11.00;;
74177;SDS011;62540;48.456;-4.456;2022-09-14T05:21:15;17.25;;;14.75;;
74177;SDS011;62540;48.456;-4.456;2022-09-14T05:23:42;12.25;;;11.50;;
74177;SDS011;62540;48.456;-4.456;2022-09-14T05:26:08;16.50;;;14.50;;
74177;SDS011;62540;48.456;-4.456;2022-09-14T05:28:34;16.25;;;14.75;;
74177;SDS011;62540;48.456;-4.456;2022-09-14T05:31:07;17.25;;;16.00;;
74177;SDS011;62540;48.456;-4.456;2022-09-14T05:33:33;18.75;;;16.00;;
74177;SDS011;62540;48.456;-4.456;2022-09-14T05:36:00;15.75;;;14.25;;
74177;SDS011;62540;48.456;-4.456;2022-09-14T05:38:27;18.00;;;15.00;;
74177;SDS011;62540;48.456;-4.456;2022-09-14T05:40:54;10.75;;;9.75;;
74177;SDS011;62540;48.456;-4.456;2022-09-14T05:43:19;14.00;;;12.25;;
74177;SDS011;62540;48.456;-4.456;2022-09-14T05:45:46;14.00;;;11.50;;
74177;SDS011;62540;48.456;-4.456;2022-09-14T05:48:12;12.50;;;11.50;;
74177;SDS011;62540;48.456;-4.456;2022-09-14T05:50:38;16.00;;;14.25;;
74177;SDS011;62540;48.456;-4.456;2022-09-14T05:53:03;19.50;;;14.25;;
74177;SDS011;62540;48.456;-4.456;2022-09-14T05:55:29;13.00;;;12.50;;
74177;SDS011;62540;48.456;-4.456;2022-09-14T05:57:54;14.25;;;12.25;;
74177;SDS011;62540;48.456;-4.456;2022-09-14T06:00:20;15.50;;;12.25;;
74177;SDS011;62540;48.456;-4.456;2022-09-14T06:02:49;11.00;;;10.50;;
74177;SDS011;62540;48.456;-4.456;2022-09-14T06:05:16;11.75;;;9.75;;
74177;SDS011;62540;48.456;-4.456;2022-09-14T06:07:42;11.25;;;11.00;;
74177;SDS011;62540;48.456;-4.456;2022-09-14T06:10:08;11.75;;;11.75;;
74177;SDS011;62540;48.456;-4.456;2022-09-14T06:12:35;10.50;;;9.25;;
74177;SDS011;62540;48.456;-4.456;2022-09-14T06:15:00;14.00;;;12.25;;
74177;SDS011;62540;48.456;-4.456;2022-09-14T06:17:28;11.50;;;11.50;;
74177;SDS011;62540;48.456;-4.456;2022-09-14T06:19:53;12.00;;;11.75;;
74177;SDS011;62540;48.456;-4.456;2022-09-14T06:22:19;9.25;;;9.00;;
74177;SDS011;62540;48.456;-4.456;2022-09-14T06:24:44;9.00;;;9.00;;
74177;SDS011;62540;48.456;-4.456;2022-09-14T06:27:10;12.25;;;11.50;;
74177;SDS011;62540;48.456;-4.456;2022-09-14T06:29:35;10.75;;;10.00;;
74177;SDS011;62540;48.456;-4.456;2022-09-14T06:32:01;12.50;;;11.50;;
74177;SDS011;62540;48.456;-4.456;2022-09-14T06:34:26;17.50;;;13.50;;
74177;SDS011;62540;48.456;-4.456;2022-09-14T06:36:52;13.00;;;11.25;;
74177;SDS011;62540;48.456;-4.456;2022-09-14T06:39:17;14.75;;;11.75;;
74177;SDS011;62540;48.456;-4.456;2022-09-14T06:41:43;16.50;;;15.50;;
74177;SDS011;62540;48.456;-4.456;2022-09-14T06:44:08;12.00;;;10.25;;
74177;SDS011;62540;48.456;-4.456;2022-09-14T06:46:34;11.50;;;11.50;;
74177;SDS011;62540;48.456;-4.456;2022-09-14T06:49:03;12.50;;;11.25;;
74177;SDS011;62540;48.456;-4.456;2022-09-14T06:51:35;12.50;;;10.25;;
74177;SDS011;62540;48.456;-4.456;2022-09-14T06:54:06;13.25;;;12.00;;
74177;SDS011;62540;48.456;-4.456;2022-09-14T06:56:35;12.00;;;11.00;;
74177;SDS011;62540;48.456;-4.456;2022-09-14T06:59:02;12.00;;;11.25;;
74177;SDS011;62540;48.456;-4.456;2022-09-14T07:01:29;16.75;;;14.00;;
74177;SDS011;62540;48.456;-4.456;2022-09-14T07:03:55;14.75;;;13.25;;
74177;SDS011;62540;48.456;-4.456;2022-09-14T07:06:22;11.25;;;11.00;;
74177;SDS011;62540;48.456;-4.456;2022-09-14T07:08:52;11.25;;;11.00;;
74177;SDS011;62540;48.456;-4.456;2022-09-14T07:11:21;13.50;;;12.25;;
74177;SDS011;62540;48.456;-4.456;2022-09-14T07:13:49;13.50;;;13.00;;
74177;SDS011;62540;48.456;-4.456;2022-09-14T07:16:16;16.50;;;15.25;;
74177;SDS011;62540;48.456;-4.456;2022-09-14T07:18:42;21.75;;;20.25;;
74177;SDS011;62540;48.456;-4.456;2022-09-14T07:21:09;25.00;;;20.75;;
74177;SDS011;62540;48.456;-4.456;2022-09-14T07:23:36;19.00;;;15.75;;
74177;SDS011;62540;48.456;-4.456;2022-09-14T07:28:34;13.25;;;12.50;;
74177;SDS011;62540;48.456;-4.456;2022-09-14T07:31:01;15.75;;;14.50;;
74177;SDS011;62540;48.456;-4.456;2022-09-14T07:33:27;12.00;;;10.25;;
74177;SDS011;62540;48.456;-4.456;2022-09-14T07:35:53;12.00;;;11.25;;
74177;SDS011;62540;48.456;-4.456;2022-09-14T07:38:19;9.75;;;9.25;;
74177;SDS011;62540;48.456;-4.456;2022-09-14T07:40:45;14.50;;;12.25;;
74177;SDS011;62540;48.456;-4.456;2022-09-14T07:43:10;14.75;;;12.50;;
74177;SDS011;62540;48.456;-4.456;2022-09-14T07:45:36;11.00;;;10.50;;
74177;SDS011;62540;48.456;-4.456;2022-09-14T07:48:03;14.75;;;12.25;;
74177;SDS011;62540;48.456;-4.456;2022-09-14T07:50:29;11.00;;;10.25;;
74177;SDS011;62540;48.456;-4.456;2022-09-14T07:52:54;11.50;;;10.50;;
74177;SDS011;62540;48.456;-4.456;2022-09-14T07:55:20;13.50;;;11.75;;
74177;SDS011;62540;48.456;-4.456;2022-09-14T07:57:45;11.75;;;11.00;;
74177;SDS011;62540;48.456;-4.456;2022-09-14T08:00:11;14.25;;;12.25;;
74177;SDS011;62540;48.456;-4.456;2022-09-14T08:02:38;11.50;;;11.25;;
74177;SDS011;62540;48.456;-4.456;2022-09-14T08:05:04;16.25;;;13.25;;
74177;SDS011;62540;48.456;-4.456;2022-09-14T08:07:30;15.25;;;14.00;;
74177;SDS011;62540;48.456;-4.456;2022-09-14T08:09:55;14.25;;;13.50;;
74177;SDS011;62540;48.456;-4.456;2022-09-14T08:12:20;12.50;;;10.50;;
74177;SDS011;62540;48.456;-4.456;2022-09-14T08:14:46;17.00;;;15.00;;
74177;SDS011;62540;48.456;-4.456;2022-09-14T08:17:11;22.50;;;19.00;;
74177;SDS011;62540;48.456;-4.456;2022-09-14T08:19:37;15.50;;;13.50;;
74177;SDS011;62540;48.456;-4.456;2022-09-14T08:22:05;17.00;;;14.25;;
74177;SDS011;62540;48.456;-4.456;2022-09-14T08:24:30;18.00;;;17.25;;
74177;SDS011;62540;48.456;-4.456;2022-09-14T08:26:57;14.00;;;12.50;;
74177;SDS011;62540;48.456;-4.456;2022-09-14T08:29:23;15.75;;;13.50;;
74177;SDS011;62540;48.456;-4.456;2022-09-14T08:31:48;16.50;;;13.75;;
74177;SDS011;62540;48.456;-4.456;2022-09-14T08:34:16;14.25;;;13.50;;
74177;SDS011;62540;48.456;-4.456;2022-09-14T08:36:42;18.25;;;16.50;;
74177;SDS011;62540;48.456;-4.456;2022-09-14T08:39:09;16.00;;;14.50;;
74177;SDS011;62540;48.456;-4.456;2022-09-14T08:46:40;9.75;;;8.50;;
74177;SDS011;62540;48.456;-4.456;2022-09-14T08:49:13;20.50;;;18.00;;
74177;SDS011;62540;48.456;-4.456;2022-09-14T08:51:45;17.00;;;14.25;;
74177;SDS011;62540;48.456;-4.456;2022-09-14T08:54:11;16.00;;;14.00;;
74177;SDS011;62540;48.456;-4.456;2022-09-14T08:56:38;20.00;;;16.25;;
74177;SDS011;62540;48.456;-4.456;2022-09-14T09:06:55;13.75;;;13.50;;
74177;SDS011;62540;48.456;-4.456;2022-09-14T09:09:43;14.00;;;11.25;;
74177;SDS011;62540;48.456;-4.456;2022-09-14T09:12:14;19.25;;;12.00;;
74177;SDS011;62540;48.456;-4.456;2022-09-14T09:14:44;14.25;;;11.50;;
74177;SDS011;62540;48.456;-4.456;2022-09-14T09:17:17;10.50;;;10.50;;
74177;SDS011;62540;48.456;-4.456;2022-09-14T09:19:55;11.00;;;9.75;;
74177;SDS011;62540;48.456;-4.456;2022-09-14T09:22:24;13.25;;;11.25;;
74177;SDS011;62540;48.456;-4.456;2022-09-14T09:24:54;14.50;;;11.00;;
74177;SDS011;62540;48.456;-4.456;2022-09-14T09:27:19;11.75;;;10.50;;
74177;SDS011;62540;48.456;-4.456;2022-09-14T09:29:47;12.00;;;10.75;;
74177;SDS011;62540;48.456;-4.456;2022-09-14T09:32:17;16.00;;;10.50;;
74177;SDS011;62540;48.456;-4.456;2022-09-14T09:34:45;14.75;;;13.50;;
74177;SDS011;62540;48.456;-4.456;2022-09-14T09:37:15;15.75;;;14.25;;
74177;SDS011;62540;48.456;-4.456;2022-09-14T09:39:43;13.00;;;12.00;;
74177;SDS011;62540;48.456;-4.456;2022-09-14T09:42:19;12.75;;;10.75;;
74177;SDS011;62540;48.456;-4.456;2022-09-14T09:44:53;10.75;;;9.25;;
74177;SDS011;62540;48.456;-4.456;2022-09-14T09:47:31;12.00;;;10.50;;
74177;SDS011;62540;48.456;-4.456;2022-09-14T09:50:05;11.00;;;8.25;;
74177;SDS011;62540;48.456;-4.456;2022-09-14T09:52:49;8.50;;;6.75;;
74177;SDS011;62540;48.456;-4.456;2022-09-14T09:55:20;16.50;;;11.50;;
74177;SDS011;62540;48.456;-4.456;2022-09-14T09:57:53;12.25;;;10.75;;
74177;SDS011;62540;48.456;-4.456;2022-09-14T10:00:23;9.50;;;9.25;;
74177;SDS011;62540;48.456;-4.456;2022-09-14T10:02:54;14.00;;;12.00;;
74177;SDS011;62540;48.456;-4.456;2022-09-14T10:10:14;12.25;;;9.50;;
74177;SDS011;62540;48.456;-4.456;2022-09-14T10:12:46;8.75;;;8.75;;
74177;SDS011;62540;48.456;-4.456;2022-09-14T10:17:51;16.25;;;13.00;;
74177;SDS011;62540;48.456;-4.456;2022-09-14T10:20:21;13.25;;;12.00;;
74177;SDS011;62540;48.456;-4.456;2022-09-14T10:22:48;12.25;;;11.75;;
74177;SDS011;62540;48.456;-4.456;2022-09-14T10:30:20;13.50;;;12.75;;
74177;SDS011;62540;48.456;-4.456;2022-09-14T10:32:59;12.25;;;10.50;;
74177;SDS011;62540;48.456;-4.456;2022-09-14T10:38:38;12.00;;;10.00;;
74177;SDS011;62540;48.456;-4.456;2022-09-14T10:41:28;11.75;;;10.50;;
74177;SDS011;62540;48.456;-4.456;2022-09-14T10:46:49;13.00;;;11.25;;
74177;SDS011;62540;48.456;-4.456;2022-09-14T10:50:03;12.75;;;11.50;;
74177;SDS011;62540;48.456;-4.456;2022-09-14T10:52:28;13.00;;;11.00;;
74177;SDS011;62540;48.456;-4.456;2022-09-14T11:00:24;12.00;;;11.50;;
74177;SDS011;62540;48.456;-4.456;2022-09-14T11:05:38;10.50;;;9.25;;
74177;SDS011;62540;48.456;-4.456;2022-09-14T11:08:11;9.25;;;9.00;;
74177;SDS011;62540;48.456;-4.456;2022-09-14T11:24:30;18.50;;;14.25;;
74177;SDS011;62540;48.456;-4.456;2022-09-14T11:29:30;11.25;;;8.75;;
74177;SDS011;62540;48.456;-4.456;2022-09-14T11:32:21;11.25;;;8.50;;
74177;SDS011;62540;48.456;-4.456;2022-09-14T11:34:56;12.75;;;10.25;;
74177;SDS011;62540;48.456;-4.456;2022-09-14T11:37:36;13.50;;;9.75;;
74177;SDS011;62540;48.456;-4.456;2022-09-14T11:40:05;9.75;;;8.75;;
74177;SDS011;62540;48.456;-4.456;2022-09-14T11:43:08;6.75;;;4.50;;
74177;SDS011;62540;48.456;-4.456;2022-09-14T11:45:46;9.25;;;9.00;;
74177;SDS011;62540;48.456;-4.456;2022-09-14T11:50:52;15.25;;;12.75;;
74177;SDS011;62540;48.456;-4.456;2022-09-14T11:53:43;11.75;;;10.00;;
74177;SDS011;62540;48.456;-4.456;2022-09-14T11:56:21;12.75;;;11.00;;
74177;SDS011;62540;48.456;-4.456;2022-09-14T11:59:00;14.50;;;12.00;;
74177;SDS011;62540;48.456;-4.456;2022-09-14T12:01:32;11.00;;;10.25;;
74177;SDS011;62540;48.456;-4.456;2022-09-14T12:11:48;11.75;;;9.00;;
74177;SDS011;62540;48.456;-4.456;2022-09-14T12:19:38;10.25;;;6.00;;
74177;SDS011;62540;48.456;-4.456;2022-09-14T12:27:43;7.25;;;5.50;;
74177;SDS011;62540;48.456;-4.456;2022-09-14T13:06:51;3.00;;;3.00;;
74177;SDS011;62540;48.456;-4.456;2022-09-14T13:09:21;3.00;;;2.75;;
74177;SDS011;62540;48.456;-4.456;2022-09-14T13:11:52;2.75;;;2.00;;
74177;SDS011;62540;48.456;-4.456;2022-09-14T13:14:21;2.00;;;2.00;;
74177;SDS011;62540;48.456;-4.456;2022-09-14T13:16:49;3.00;;;3.00;;
74177;SDS011;62540;48.456;-4.456;2022-09-14T13:19:20;2.75;;;2.25;;
74177;SDS011;62540;48.456;-4.456;2022-09-14T13:21:46;4.25;;;3.75;;
74177;SDS011;62540;48.456;-4.456;2022-09-14T13:26:48;3.75;;;3.25;;
74177;SDS011;62540;48.456;-4.456;2022-09-14T13:29:14;3.00;;;3.00;;
74177;SDS011;62540;48.456;-4.456;2022-09-14T13:31:40;6.50;;;4.25;;
74177;SDS011;62540;48.456;-4.456;2022-09-14T13:37:06;7.00;;;6.00;;
74177;SDS011;62540;48.456;-4.456;2022-09-14T13:39:36;4.75;;;4.75;;
74177;SDS011;62540;48.456;-4.456;2022-09-14T13:42:05;7.00;;;5.75;;
74177;SDS011;62540;48.456;-4.456;2022-09-14T13:44:34;4.00;;;3.00;;
74177;SDS011;62540;48.456;-4.456;2022-09-14T13:47:06;5.00;;;5.00;;
74177;SDS011;62540;48.456;-4.456;2022-09-14T13:49:33;3.25;;;2.75;;
74177;SDS011;62540;48.456;-4.456;2022-09-14T13:54:53;4.00;;;4.00;;
74177;SDS011;62540;48.456;-4.456;2022-09-14T13:57:22;7.25;;;7.00;;
74177;SDS011;62540;48.456;-4.456;2022-09-14T14:02:53;5.50;;;4.50;;
74177;SDS011;62540;48.456;-4.456;2022-09-14T14:05:28;7.25;;;5.75;;
74177;SDS011;62540;48.456;-4.456;2022-09-14T14:07:56;6.00;;;5.00;;
74177;SDS011;62540;48.456;-4.456;2022-09-14T14:12:54;7.75;;;7.25;;
74177;SDS011;62540;48.456;-4.456;2022-09-14T14:17:48;8.25;;;6.25;;
74177;SDS011;62540;48.456;-4.456;2022-09-14T14:22:56;4.50;;;3.25;;
74177;SDS011;62540;48.456;-4.456;2022-09-14T14:25:38;5.75;;;2.75;;
74177;SDS011;62540;48.456;-4.456;2022-09-14T14:28:13;4.00;;;4.00;;
74177;SDS011;62540;48.456;-4.456;2022-09-14T14:30:46;6.75;;;4.00;;
74177;SDS011;62540;48.456;-4.456;2022-09-14T14:33:12;6.00;;;4.75;;
74177;SDS011;62540;48.456;-4.456;2022-09-14T14:35:38;3.50;;;3.50;;
74177;SDS011;62540;48.456;-4.456;2022-09-14T14:38:05;5.00;;;5.00;;
74177;SDS011;62540;48.456;-4.456;2022-09-14T14:40:31;5.50;;;4.75;;
74177;SDS011;62540;48.456;-4.456;2022-09-14T14:42:58;8.25;;;6.50;;
74177;SDS011;62540;48.456;-4.456;2022-09-14T14:45:26;8.50;;;7.00;;
74177;SDS011;62540;48.456;-4.456;2022-09-14T14:47:54;6.00;;;6.00;;
74177;SDS011;62540;48.456;-4.456;2022-09-14T14:50:21;7.00;;;6.75;;
74177;SDS011;62540;48.456;-4.456;2022-09-14T14:52:48;5.50;;;5.25;;
74177;SDS011;62540;48.456;-4.456;2022-09-14T14:55:15;12.50;;;7.25;;
74177;SDS011;62540;48.456;-4.456;2022-09-14T14:57:41;8.25;;;6.00;;
74177;SDS011;62540;48.456;-4.456;2022-09-14T15:00:10;7.00;;;5.25;;
74177;SDS011;62540;48.456;-4.456;2022-09-14T15:02:38;7.00;;;5.25;;
74177;SDS011;62540;48.456;-4.456;2022-09-14T15:05:03;7.25;;;4.75;;
74177;SDS011;62540;48.456;-4.456;2022-09-14T15:07:29;7.75;;;7.00;;
74177;SDS011;62540;48.456;-4.456;2022-09-14T15:09:58;5.50;;;5.25;;
74177;SDS011;62540;48.456;-4.456;2022-09-14T15:12:23;6.50;;;6.00;;
74177;SDS011;62540;48.456;-4.456;2022-09-14T15:14:48;4.50;;;4.25;;
74177;SDS011;62540;48.456;-4.456;2022-09-14T15:17:14;5.25;;;4.75;;
74177;SDS011;62540;48.456;-4.456;2022-09-14T15:19:39;7.00;;;6.00;;
74177;SDS011;62540;48.456;-4.456;2022-09-14T15:22:05;4.25;;;3.00;;
74177;SDS011;62540;48.456;-4.456;2022-09-14T15:24:30;8.00;;;6.25;;
74177;SDS011;62540;48.456;-4.456;2022-09-14T15:26:56;9.25;;;7.50;;
74177;SDS011;62540;48.456;-4.456;2022-09-14T15:29:23;8.00;;;5.00;;
74177;SDS011;62540;48.456;-4.456;2022-09-14T15:31:48;6.00;;;4.00;;
74177;SDS011;62540;48.456;-4.456;2022-09-14T15:34:14;7.00;;;5.50;;
74177;SDS011;62540;48.456;-4.456;2022-09-14T15:36:43;6.00;;;5.00;;
74177;SDS011;62540;48.456;-4.456;2022-09-14T15:39:21;6.25;;;6.25;;
74177;SDS011;62540;48.456;-4.456;2022-09-14T15:41:48;5.75;;;5.75;;
74177;SDS011;62540;48.456;-4.456;2022-09-14T15:44:14;4.75;;;3.25;;
74177;SDS011;62540;48.456;-4.456;2022-09-14T15:46:40;4.25;;;3.25;;
74177;SDS011;62540;48.456;-4.456;2022-09-14T15:49:09;8.00;;;7.75;;
74177;SDS011;62540;48.456;-4.456;2022-09-14T15:51:36;6.75;;;5.00;;
74177;SDS011;62540;48.456;-4.456;2022-09-14T15:54:02;5.50;;;5.00;;
74177;SDS011;62540;48.456;-4.456;2022-09-14T15:56:28;8.50;;;6.00;;
74177;SDS011;62540;48.456;-4.456;2022-09-14T15:58:56;6.50;;;4.75;;
74177;SDS011;62540;48.456;-4.456;2022-09-14T16:01:22;5.50;;;4.50;;
74177;SDS011;62540;48.456;-4.456;2022-09-14T16:03:48;8.25;;;7.25;;
74177;SDS011;62540;48.456;-4.456;2022-09-14T16:06:13;6.50;;;5.00;;
74177;SDS011;62540;48.456;-4.456;2022-09-14T16:08:39;3.00;;;2.25;;
74177;SDS011;62540;48.456;-4.456;2022-09-14T16:11:06;5.75;;;3.25;;
74177;SDS011;62540;48.456;-4.456;2022-09-14T16:13:33;5.00;;;4.00;;
74177;SDS011;62540;48.456;-4.456;2022-09-14T16:16:06;1.00;;;0.00;;
74177;SDS011;62540;48.456;-4.456;2022-09-14T16:18:34;5.00;;;4.00;;
74177;SDS011;62540;48.456;-4.456;2022-09-14T16:23:33;3.00;;;3.00;;
74177;SDS011;62540;48.456;-4.456;2022-09-14T16:26:04;2.75;;;2.50;;
74177;SDS011;62540;48.456;-4.456;2022-09-14T16:28:31;4.00;;;3.00;;
74177;SDS011;62540;48.456;-4.456;2022-09-14T16:31:18;2.00;;;1.00;;
74177;SDS011;62540;48.456;-4.456;2022-09-14T16:33:45;1.75;;;1.75;;
74177;SDS011;62540;48.456;-4.456;2022-09-14T16:36:21;3.00;;;2.00;;
74177;SDS011;62540;48.456;-4.456;2022-09-14T16:38:50;2.00;;;2.00;;
74177;SDS011;62540;48.456;-4.456;2022-09-14T16:41:16;2.00;;;2.00;;
74177;SDS011;62540;48.456;-4.456;2022-09-14T16:43:42;3.50;;;2.75;;
74177;SDS011;62540;48.456;-4.456;2022-09-14T16:46:11;2.75;;;2.50;;
74177;SDS011;62540;48.456;-4.456;2022-09-14T16:48:38;4.75;;;4.00;;
74177;SDS011;62540;48.456;-4.456;2022-09-14T16:51:05;1.50;;;1.50;;
74177;SDS011;62540;48.456;-4.456;2022-09-14T16:53:31;5.00;;;4.00;;
74177;SDS011;62540;48.456;-4.456;2022-09-14T16:56:02;2.25;;;2.25;;
74177;SDS011;62540;48.456;-4.456;2022-09-14T16:58:32;4.25;;;3.25;;
74177;SDS011;62540;48.456;-4.456;2022-09-14T17:01:08;6.00;;;4.00;;
74177;SDS011;62540;48.456;-4.456;2022-09-14T17:03:37;4.50;;;3.25;;
74177;SDS011;62540;48.456;-4.456;2022-09-14T17:06:04;5.00;;;4.00;;
74177;SDS011;62540;48.456;-4.456;2022-09-14T17:08:31;3.25;;;3.00;;
74177;SDS011;62540;48.456;-4.456;2022-09-14T17:10:58;7.00;;;5.00;;
74177;SDS011;62540;48.456;-4.456;2022-09-14T17:13:24;4.50;;;4.50;;
74177;SDS011;62540;48.456;-4.456;2022-09-14T17:15:51;9.50;;;4.75;;
74177;SDS011;62540;48.456;-4.456;2022-09-14T17:18:17;6.25;;;5.00;;
74177;SDS011;62540;48.456;-4.456;2022-09-14T17:23:39;7.00;;;6.50;;
74177;SDS011;62540;48.456;-4.456;2022-09-14T17:26:06;5.50;;;5.25;;
74177;SDS011;62540;48.456;-4.456;2022-09-14T17:28:34;7.00;;;4.75;;
74177;SDS011;62540;48.456;-4.456;2022-09-14T17:31:01;6.50;;;5.00;;